Startpagina
METAR-TAF:

METAR-TAF

Vliegvelden :

Internationale Luchthaven Baghdad

Bagdad, Irak

breedte: 33-15-45N, lengte: 44-14-04E, hoogte: 35 m

Actueel weer

Dit bericht is 35 minuten geleden gemaakt, om 22:00 UTC
Wind 3 kt uit het zuidoosten
Temperatuur 29°C
Vochtigheid 35%
Druk 1005 hPa
Zicht 10 km of meer
geen wolken onder 1500 m en geen cumulonimbus

METAR: ORBI 232200Z 13003KT CAVOK 29/12 Q1005 NOSIG

Tijdstip: 01:35 (22:35 UTC)

Verwachting

Dit bericht is 6 uur en het 35 minuten geleden gemaakt, om 16:00 UTC
Verwachting geldig van 23 om 18 UTC tot 24 om 18 UTC
Wind 7 kt uit het oostnoordoosten
Zicht: 8000 m

TAF: ORBI 231600Z 2318/2418 07007KT 8000 NSC

Waarnemingen en weersverwachtingen van meer dan 4000 vliegvelden (METAR en TAF).

De beschikbare stations zijn de gele en rode punten op de kaart.

Ga met uw muis naar het station om de naam te zien.

Klik dan om waarnemingen en weersverwachtingen te zien.

kaart wijzigen: klik op de groene knoppen met een zwart kruis om in te zoomen, op de groene knop met een streepje om uit te zoomen of op de groene pijlen voor aangrenzende kaarten.


METAR-TAF: